Time;durP1;ratioP1;P1;durP2;ratioP2;P2;SDS_P1;SDS_P2;PMS_P1;PMS_P2;Temp;Humidity;BMP_temperature;BMP_pressure;BME280_temperature;BME280_humidity;BME280_pressure;Samples;Min_cycle;Max_cycle;Signal;HPM_P1;HPM_P2
2021/08/11 00:02:01;;;;;;;9.00;8.10;;;;;;;16.04;87.27;100526.98;263632;1095;114962;-66
2021/08/11 00:07:03;;;;;;;11.18;9.15;;;;;;;16.07;86.91;100534.59;263658;1095;114813;-69
2021/08/11 00:12:05;;;;;;;11.10;10.00;;;;;;;16.10;86.65;100535.05;263618;1095;114657;-69
2021/08/11 00:17:08;;;;;;;9.75;8.73;;;;;;;16.13;87.32;100534.68;263590;1096;115028;-68
2021/08/11 00:22:10;;;;;;;11.33;10.20;;;;;;;16.10;86.98;100527.05;263665;1095;114184;-68
2021/08/11 00:27:12;;;;;;;13.53;10.20;;;;;;;16.10;87.70;100531.55;263623;1096;114956;-69
2021/08/11 00:32:14;;;;;;;10.95;9.85;;;;;;;16.16;87.56;100523.65;263666;1096;114848;-68
2021/08/11 00:37:17;;;;;;;10.33;9.18;;;;;;;16.23;87.08;100531.73;263281;1096;114686;-68
2021/08/11 00:42:19;;;;;;;9.43;8.45;;;;;;;16.31;86.66;100528.14;263660;1096;115043;-74
2021/08/11 00:47:26;;;;;;;9.95;8.95;;;;;;;16.40;86.31;100527.83;263640;1095;114784;-68
2021/08/11 00:52:28;;;;;;;10.65;9.03;;;;;;;16.41;86.26;100533.98;263605;1096;114358;-69
2021/08/11 00:57:31;;;;;;;10.95;9.95;;;;;;;16.17;86.55;100535.14;263629;1095;114595;-68
2021/08/11 01:02:35;;;;;;;11.80;10.70;;;;;;;16.14;86.88;100536.33;263637;1096;114799;-69
2021/08/11 01:07:38;;;;;;;12.35;11.23;;;;;;;16.07;86.88;100531.92;263633;1095;114803;-69
2021/08/11 01:12:41;;;;;;;12.75;11.48;;;;;;;16.06;87.21;100530.27;263674;1095;114700;-68
2021/08/11 01:17:43;;;;;;;14.53;12.23;;;;;;;16.11;87.05;100525.20;263267;1096;114670;-68
2021/08/11 01:22:54;;;;;;;12.63;11.43;;;;;;;16.10;86.58;100515.56;263652;1095;114990;-68
2021/08/11 01:28:15;;;;;;;11.80;10.70;;;;;;;16.09;86.70;100511.24;263661;1095;114952;-68
2021/08/11 01:33:27;;;;;;;12.05;10.93;;;;;;;16.02;86.88;100503.16;263679;1096;114632;-69
2021/08/11 01:38:34;;;;;;;11.70;10.63;;;;;;;16.05;86.34;100536.63;263618;1096;114973;-67
2021/08/11 01:43:39;;;;;;;12.43;11.23;;;;;;;15.95;86.89;100536.06;263654;1096;116274;-68
2021/08/11 01:48:43;;;;;;;11.55;10.50;;;;;;;15.91;86.53;100544.45;263650;1094;115087;-69
2021/08/11 01:53:46;;;;;;;11.85;10.75;;;;;;;15.95;86.06;100533.41;263622;1095;115075;-69
2021/08/11 01:58:49;;;;;;;12.13;11.03;;;;;;;15.98;85.51;100527.70;263645;1095;115219;-69
2021/08/11 02:03:51;;;;;;;11.80;10.65;;;;;;;15.80;86.46;100526.26;263627;1096;115109;-69
2021/08/11 02:08:56;;;;;;;11.88;10.78;;;;;;;15.89;86.48;100519.81;263509;1095;114985;-68
2021/08/11 02:13:59;;;;;;;11.53;10.48;;;;;;;15.85;85.98;100526.52;263630;1096;115070;-68
2021/08/11 02:19:01;;;;;;;12.53;11.33;;;;;;;15.88;85.56;100523.50;263360;1095;114921;-70
2021/08/11 02:24:05;;;;;;;12.43;11.08;;;;;;;15.82;85.51;100532.21;263087;1095;114682;-68
2021/08/11 02:29:40;;;;;;;11.80;10.25;;;;;;;15.68;86.11;100538.38;263299;1095;114639;-68
2021/08/11 02:35:02;;;;;;;12.85;11.33;;;;;;;15.49;86.87;100546.88;263479;1095;114604;-70
2021/08/11 02:40:10;;;;;;;12.83;11.60;;;;;;;15.43;86.52;100551.89;263297;1096;115317;-67
2021/08/11 02:45:15;;;;;;;12.03;10.83;;;;;;;15.44;86.30;100548.21;263090;1096;114641;-69
2021/08/11 02:50:18;;;;;;;12.78;11.60;;;;;;;15.48;86.06;100553.19;263401;1095;115002;-68
2021/08/11 02:55:22;;;;;;;13.35;12.15;;;;;;;15.37;86.07;100549.14;263619;1095;114801;-67
2021/08/11 03:00:24;;;;;;;13.15;11.85;;;;;;;15.29;86.32;100547.38;263299;1095;115062;-68
2021/08/11 03:05:26;;;;;;;14.53;13.13;;;;;;;15.30;86.39;100543.70;263038;1095;115019;-69
2021/08/11 03:10:29;;;;;;;13.73;12.40;;;;;;;15.34;86.51;100563.64;263587;1096;114717;-69
2021/08/11 03:15:31;;;;;;;16.58;15.10;;;;;;;15.39;86.64;100563.91;263675;1095;115175;-68
2021/08/11 03:20:34;;;;;;;16.75;15.15;;;;;;;15.61;86.11;100558.73;263609;1096;114622;-68
2021/08/11 03:25:36;;;;;;;16.10;14.60;;;;;;;15.61;86.34;100554.23;263642;1096;115325;-69
2021/08/11 03:30:39;;;;;;;16.43;14.83;;;;;;;15.48;86.41;100569.99;263585;1096;115161;-69
2021/08/11 03:35:41;;;;;;;18.70;16.85;;;;;;;15.27;87.46;100584.00;263598;1096;114714;-69
2021/08/11 03:40:44;;;;;;;16.93;15.18;;;;;;;15.24;87.69;100572.88;263598;1095;114666;-69
2021/08/11 03:45:46;;;;;;;16.40;14.83;;;;;;;15.14;87.51;100573.13;263615;1095;114799;-68
2021/08/11 03:50:48;;;;;;;15.78;14.33;;;;;;;15.03;88.29;100573.55;263621;1095;115339;-68
2021/08/11 03:55:50;;;;;;;15.60;14.10;;;;;;;15.28;87.98;100566.18;263668;1095;114697;-69
2021/08/11 04:00:52;;;;;;;15.78;14.33;;;;;;;15.29;87.66;100563.36;263621;1096;114963;-68
2021/08/11 04:05:54;;;;;;;13.93;12.38;;;;;;;15.29;87.46;100560.70;263641;1096;115052;-68
2021/08/11 04:10:57;;;;;;;16.58;14.40;;;;;;;15.42;88.15;100550.25;263618;1096;114773;-69
2021/08/11 04:15:59;;;;;;;16.73;15.15;;;;;;;15.46;87.39;100548.05;263615;1096;115049;-68
2021/08/11 04:21:01;;;;;;;16.23;14.63;;;;;;;15.60;87.88;100549.06;263642;1096;115081;-69
2021/08/11 04:26:03;;;;;;;17.03;15.33;;;;;;;15.61;86.66;100542.75;263679;1095;114936;-68
2021/08/11 04:31:05;;;;;;;15.38;13.90;;;;;;;15.40;87.57;100557.58;263646;1096;115096;-70
2021/08/11 04:36:07;;;;;;;17.98;15.55;;;;;;;15.26;88.21;100565.55;263722;1095;114918;-67
2021/08/11 04:41:13;;;;;;;15.37;13.83;;;;;;;15.23;88.16;100569.39;263322;1096;115011;-70
2021/08/11 04:46:15;;;;;;;16.28;14.68;;;;;;;15.22;88.58;100559.75;263624;1095;114942;-73
2021/08/11 04:51:17;;;;;;;16.50;14.80;;;;;;;15.42;88.02;100558.23;263613;1095;114637;-70
2021/08/11 04:56:19;;;;;;;19.83;17.93;;;;;;;15.53;87.95;100569.48;263630;1096;114937;-70
2021/08/11 05:01:22;;;;;;;15.23;13.65;;;;;;;15.54;86.74;100579.11;263604;1095;129900;-71
2021/08/11 05:06:24;;;;;;;16.20;14.50;;;;;;;15.41;87.76;100585.89;263661;1095;114861;-72
2021/08/11 05:11:26;;;;;;;14.45;13.13;;;;;;;15.34;87.88;100586.78;263613;1094;114796;-70
2021/08/11 05:16:28;;;;;;;16.80;15.20;;;;;;;15.40;88.00;100588.71;263661;1095;115060;-71
2021/08/11 05:21:31;;;;;;;17.55;15.93;;;;;;;15.37;88.57;100581.93;263615;1095;115271;-71
2021/08/11 05:26:34;;;;;;;15.00;13.55;;;;;;;15.49;88.03;100587.66;263638;1096;114941;-71
2021/08/11 05:31:36;;;;;;;12.65;11.48;;;;;;;15.53;86.77;100582.80;263651;1095;114690;-71
2021/08/11 05:36:38;;;;;;;14.53;13.20;;;;;;;15.67;87.03;100590.00;263603;1095;114742;-71
2021/08/11 05:41:40;;;;;;;12.88;11.68;;;;;;;15.74;86.47;100590.93;263652;1095;114593;-70
2021/08/11 05:46:42;;;;;;;12.90;11.58;;;;;;;15.78;86.49;100602.88;263676;1094;114954;-71
2021/08/11 05:51:45;;;;;;;13.23;11.88;;;;;;;15.80;86.33;100590.22;263377;1096;115116;-70
2021/08/11 05:56:47;;;;;;;14.45;11.93;;;;;;;15.85;86.17;100592.33;263667;1095;114679;-70
2021/08/11 06:01:49;;;;;;;12.23;11.03;;;;;;;15.87;86.12;100592.95;263574;1095;114664;-70
2021/08/11 06:06:51;;;;;;;13.45;11.90;;;;;;;15.97;85.96;100598.04;263657;1095;114709;-70
2021/08/11 06:11:53;;;;;;;12.73;11.28;;;;;;;15.84;85.77;100601.34;263648;1096;114950;-70
2021/08/11 06:16:55;;;;;;;12.53;10.88;;;;;;;15.92;85.63;100599.41;263674;1096;114917;-70
2021/08/11 06:21:57;;;;;;;15.03;12.15;;;;;;;15.99;85.30;100609.33;263603;1095;115260;-70
2021/08/11 06:27:00;;;;;;;12.35;11.13;;;;;;;15.85;85.55;100617.14;263549;1094;114883;-69
2021/08/11 06:32:03;;;;;;;12.63;11.28;;;;;;;16.01;85.67;100617.98;263671;1095;115242;-70
2021/08/11 06:37:05;;;;;;;13.35;12.00;;;;;;;16.12;85.35;100614.88;263740;1095;114631;-72
2021/08/11 06:42:07;;;;;;;12.08;10.88;;;;;;;16.24;85.14;100616.06;263803;1095;115078;-70
2021/08/11 06:47:09;;;;;;;11.15;10.13;;;;;;;16.38;84.21;100615.23;263857;1095;116448;-70
2021/08/11 06:52:12;;;;;;;14.90;9.90;;;;;;;16.51;84.70;100614.56;263568;1096;115005;-70
2021/08/11 06:57:14;;;;;;;9.35;8.53;;;;;;;16.78;83.63;100623.75;263613;1096;114916;-70
2021/08/11 07:02:16;;;;;;;10.00;8.40;;;;;;;16.77;82.96;100622.11;263073;1096;114817;-71
2021/08/11 07:07:18;;;;;;;8.35;7.53;;;;;;;16.80;82.39;100635.05;263596;1096;115534;-71
2021/08/11 07:12:20;;;;;;;10.10;7.45;;;;;;;16.89;82.53;100631.27;263660;1095;115360;-69
2021/08/11 07:17:22;;;;;;;7.38;6.73;;;;;;;16.97;81.83;100641.02;263589;1094;115215;-71
2021/08/11 07:22:25;;;;;;;7.75;6.78;;;;;;;17.18;82.07;100631.36;263661;1095;115020;-70
2021/08/11 07:27:27;;;;;;;8.83;7.98;;;;;;;17.32;81.24;100633.16;263609;1095;114525;-70
2021/08/11 07:32:29;;;;;;;7.80;6.93;;;;;;;17.55;81.35;100638.27;263692;1096;114600;-70
2021/08/11 07:37:31;;;;;;;12.23;9.75;;;;;;;17.62;80.97;100639.16;263600;1095;114702;-71
2021/08/11 07:42:33;;;;;;;14.65;9.90;;;;;;;17.74;80.22;100648.30;263328;1096;114941;-72
2021/08/11 07:47:36;;;;;;;10.33;9.38;;;;;;;17.86;80.25;100638.78;263614;1096;114773;-71
2021/08/11 07:52:38;;;;;;;9.58;8.43;;;;;;;17.79;80.03;100624.53;263667;1096;114749;-70
2021/08/11 07:57:40;;;;;;;12.95;9.83;;;;;;;17.88;80.93;100622.53;263600;1096;114458;-71
2021/08/11 08:02:42;;;;;;;12.38;8.90;;;;;;;17.94;80.35;100619.05;263657;1095;115016;-71
2021/08/11 08:07:45;;;;;;;8.73;7.63;;;;;;;18.07;78.09;100621.02;263607;1095;115202;-70
2021/08/11 08:12:48;;;;;;;10.05;6.90;;;;;;;18.18;78.37;100627.64;263686;1095;114872;-71
2021/08/11 08:17:51;;;;;;;6.83;6.13;;;;;;;18.23;77.34;100623.36;263622;1095;114945;-71
2021/08/11 08:22:53;;;;;;;7.65;6.95;;;;;;;18.26;77.68;100609.60;263626;1095;114782;-73
2021/08/11 08:27:55;;;;;;;9.18;7.70;;;;;;;18.30;77.88;100610.86;263609;1096;114877;-70
2021/08/11 08:32:57;;;;;;;6.45;5.85;;;;;;;18.48;76.96;100612.16;263632;1094;115225;-71
2021/08/11 08:37:59;;;;;;;6.95;6.25;;;;;;;18.44;76.85;100611.73;263598;1096;114664;-70
2021/08/11 08:43:02;;;;;;;6.65;6.05;;;;;;;18.43;76.82;100615.44;263632;1096;114922;-72
2021/08/11 08:48:05;;;;;;;6.03;5.40;;;;;;;18.65;75.81;100618.83;263419;1096;114387;-71
2021/08/11 08:53:09;;;;;;;7.20;5.35;;;;;;;18.96;74.66;100607.63;263694;1096;114547;-71
2021/08/11 08:58:11;;;;;;;;;;;;;;;19.07;74.46;100611.54;263351;1095;114661;-71
2021/08/11 09:03:15;;;;;;;6.15;5.23;;;;;;;19.09;75.59;100598.78;263725;1096;101106;-71
2021/08/11 09:08:18;;;;;;;4.08;3.68;;;;;;;19.23;73.83;100587.06;263555;1095;115219;-71
2021/08/11 09:13:22;;;;;;;3.53;3.13;;;;;;;19.38;72.11;100602.10;263689;1096;114553;-70
2021/08/11 09:18:28;;;;;;;;;;;;;;;19.63;71.04;100595.13;263365;1096;115179;-72
2021/08/11 09:23:36;;;;;;;5.58;3.20;;;;;;;19.65;70.18;100602.95;263710;1095;101119;-71
2021/08/11 09:28:41;;;;;;;5.03;4.10;;;;;;;19.73;70.48;100598.20;263647;1095;115145;-71
2021/08/11 09:33:49;;;;;;;3.38;3.05;;;;;;;19.54;69.08;100601.69;263366;1095;115454;-70
2021/08/11 09:39:00;;;;;;;4.20;3.80;;;;;;;19.58;69.09;100602.92;263344;1095;114588;-71
2021/08/11 09:44:08;;;;;;;5.63;3.28;;;;;;;19.90;67.74;100600.47;263663;1095;114495;-71
2021/08/11 09:49:21;;;;;;;5.60;3.85;;;;;;;20.18;65.55;100595.64;263296;1095;114604;-71
2021/08/11 09:54:23;;;;;;;6.28;3.43;;;;;;;20.27;64.83;100602.42;263343;1096;114728;-73
2021/08/11 09:59:27;;;;;;;3.83;2.70;;;;;;;20.31;62.86;100611.70;263336;1096;114899;-72
2021/08/11 10:04:41;;;;;;;5.43;3.30;;;;;;;20.28;63.72;100604.09;263634;1095;115024;-73
2021/08/11 10:09:59;;;;;;;;;;;;;;;20.18;62.64;100603.70;263609;1094;115116;-74
2021/08/11 10:15:04;;;;;;;2.90;2.63;;;;;;;20.49;60.59;100599.50;263698;1095;101371;-70
2021/08/11 10:20:07;;;;;;;5.95;3.53;;;;;;;20.54;59.98;100613.09;263652;1096;115006;-72
2021/08/11 10:25:10;;;;;;;2.43;2.08;;;;;;;20.71;59.74;100608.91;263647;1095;114674;-72
2021/08/11 10:30:14;;;;;;;4.60;4.20;;;;;;;20.55;59.18;100609.37;263637;1095;114374;-73
2021/08/11 10:35:16;;;;;;;11.50;4.80;;;;;;;20.67;55.33;100606.84;263647;1096;114735;-71
2021/08/11 10:40:18;;;;;;;26.15;9.85;;;;;;;21.02;56.11;100612.63;263613;1096;114711;-71
2021/08/11 10:45:22;;;;;;;4.43;2.90;;;;;;;20.50;57.52;100611.88;263656;1095;114681;-70
2021/08/11 10:50:41;;;;;;;4.83;2.30;;;;;;;20.58;58.66;100614.31;263575;1095;114760;-73
2021/08/11 10:55:53;;;;;;;2.48;1.85;;;;;;;20.35;58.95;100624.70;263651;1095;114559;-71
2021/08/11 11:00:56;;;;;;;2.20;1.88;;;;;;;20.24;58.34;100618.94;263588;1096;114779;-71
2021/08/11 11:05:58;;;;;;;1.75;1.65;;;;;;;20.54;56.75;100623.84;263307;1096;114990;-71
2021/08/11 11:11:28;;;;;;;2.93;1.38;;;;;;;20.92;53.69;100623.87;263622;1095;114645;-70
2021/08/11 11:17:01;;;;;;;1.73;1.63;;;;;;;21.29;54.17;100626.72;263613;1096;114813;-71
2021/08/11 11:22:32;;;;;;;4.48;2.03;;;;;;;21.34;55.71;100620.72;263340;1096;114554;-71
2021/08/11 11:27:38;;;;;;;2.55;2.10;;;;;;;20.77;56.48;100626.83;263635;1095;114650;-70
2021/08/11 11:32:41;;;;;;;2.55;2.23;;;;;;;20.84;56.98;100628.67;263589;1096;114537;-71
2021/08/11 11:37:44;;;;;;;2.50;2.30;;;;;;;20.70;57.64;100627.90;263624;1095;114500;-70
2021/08/11 11:42:47;;;;;;;9.95;3.85;;;;;;;20.56;57.85;100629.84;263582;1096;114893;-72
2021/08/11 11:47:49;;;;;;;10.43;3.00;;;;;;;20.88;57.61;100633.40;263671;1095;115184;-71
2021/08/11 11:52:54;;;;;;;2.18;1.98;;;;;;;21.09;56.04;100626.86;263600;1095;115074;-70
2021/08/11 11:57:58;;;;;;;3.23;2.00;;;;;;;21.03;56.01;100628.56;263001;1095;114931;-71
2021/08/11 12:03:01;;;;;;;2.70;2.08;;;;;;;21.08;54.22;100633.28;263627;1095;115021;-71
2021/08/11 12:08:10;;;;;;;2.87;2.10;;;;;;;21.19;55.60;100643.34;263669;1094;114615;-71
2021/08/11 12:13:12;;;;;;;3.00;2.35;;;;;;;22.57;51.66;100644.20;263619;1095;114772;-71
2021/08/11 12:18:22;;;;;;;2.10;1.90;;;;;;;22.48;53.00;100646.38;263670;1095;114690;-73
2021/08/11 12:23:31;;;;;;;4.45;1.95;;;;;;;22.18;53.61;100638.22;263575;1095;114673;-71
2021/08/11 12:28:40;;;;;;;2.05;1.95;;;;;;;21.44;52.54;100634.52;263661;1095;114625;-71
2021/08/11 12:33:45;;;;;;;2.25;2.10;;;;;;;21.64;52.59;100635.17;263575;1095;114889;-71
2021/08/11 12:39:07;;;;;;;3.08;1.83;;;;;;;21.34;54.49;100634.16;263659;1096;114482;-71
2021/08/11 12:44:17;;;;;;;2.83;2.08;;;;;;;21.01;55.75;100643.23;263605;1094;117012;-71
2021/08/11 12:49:25;;;;;;;4.78;2.43;;;;;;;21.67;53.62;100640.12;263633;1095;114496;-71
2021/08/11 12:54:27;;;;;;;2.33;1.93;;;;;;;21.41;52.89;100651.08;263067;1095;114584;-71
2021/08/11 12:59:49;;;;;;;3.40;1.98;;;;;;;21.76;51.08;100644.16;263617;1095;114909;-72
2021/08/11 13:04:52;;;;;;;1.80;1.68;;;;;;;22.15;51.06;100641.34;263625;1095;114787;-72
2021/08/11 13:10:18;;;;;;;1.90;1.65;;;;;;;21.70;52.12;100639.69;263615;1096;114517;-71
2021/08/11 13:15:36;;;;;;;4.20;1.85;;;;;;;21.60;52.88;100631.27;263016;1095;114458;-70
2021/08/11 13:20:49;;;;;;;5.80;2.55;;;;;;;21.34;54.03;100637.70;263018;1095;114517;-70
2021/08/11 13:25:51;;;;;;;7.20;1.90;;;;;;;21.45;52.88;100641.53;263670;1095;114521;-71
2021/08/11 13:30:53;;;;;;;1.50;1.40;;;;;;;21.55;53.10;100636.50;263077;1096;114556;-72
2021/08/11 13:35:56;;;;;;;1.60;1.50;;;;;;;21.65;50.78;100635.98;263604;1096;114577;-71
2021/08/11 13:40:58;;;;;;;2.13;1.70;;;;;;;21.83;51.18;100632.53;263049;1096;115102;-70
2021/08/11 13:46:00;;;;;;;1.63;1.50;;;;;;;21.46;51.42;100637.82;263580;1095;114641;-72
2021/08/11 13:51:02;;;;;;;2.13;1.93;;;;;;;21.43;51.83;100644.45;263608;1095;114673;-71
2021/08/11 13:56:09;;;;;;;2.33;1.30;;;;;;;21.72;50.78;100642.14;263461;1096;114518;-71
2021/08/11 14:01:11;;;;;;;1.60;1.50;;;;;;;21.80;49.86;100635.66;263625;1096;114520;-70
2021/08/11 14:06:14;;;;;;;1.40;1.30;;;;;;;21.87;50.49;100628.35;263584;1096;114601;-71
2021/08/11 14:11:17;;;;;;;0.80;0.80;;;;;;;22.00;48.27;100636.31;263640;1095;114574;-71
2021/08/11 14:16:19;;;;;;;2.35;1.33;;;;;;;22.03;49.10;100633.16;263593;1096;114596;-68
2021/08/11 14:21:21;;;;;;;1.45;1.25;;;;;;;21.93;48.60;100639.06;263024;1095;114919;-70
2021/08/11 14:26:23;;;;;;;1.13;1.00;;;;;;;21.88;49.05;100635.38;263634;1095;114518;-71
2021/08/11 14:31:27;;;;;;;1.30;1.20;;;;;;;22.07;49.23;100626.28;263602;1095;114521;-71
2021/08/11 14:36:29;;;;;;;1.30;1.08;;;;;;;22.07;50.12;100615.52;263627;1095;114746;-72
2021/08/11 14:41:31;;;;;;;1.80;1.35;;;;;;;22.12;48.49;100613.00;263615;1095;114697;-71
2021/08/11 14:46:34;;;;;;;1.65;1.25;;;;;;;22.24;49.05;100613.11;263499;1096;114647;-72
2021/08/11 14:51:36;;;;;;;3.53;1.40;;;;;;;22.01;48.00;100614.55;263652;1096;114831;-71
2021/08/11 14:56:41;;;;;;;0.93;0.87;;;;;;;21.87;49.97;100612.20;263581;1096;114896;-71
2021/08/11 15:01:44;;;;;;;1.58;1.10;;;;;;;21.48;49.64;100608.83;263626;1096;114556;-70
2021/08/11 15:06:46;;;;;;;1.88;0.90;;;;;;;21.63;49.52;100614.70;263609;1096;115134;-71
2021/08/11 15:11:48;;;;;;;1.10;1.00;;;;;;;21.96;49.29;100610.86;263653;1095;114930;-71
2021/08/11 15:16:50;;;;;;;3.63;0.83;;;;;;;22.05;48.74;100614.93;263616;1095;114734;-70
2021/08/11 15:21:52;;;;;;;2.43;1.03;;;;;;;22.02;49.33;100612.67;263594;1096;114895;-71
2021/08/11 15:26:54;;;;;;;1.30;0.83;;;;;;;22.00;49.36;100623.68;263644;1096;114732;-71
2021/08/11 15:31:56;;;;;;;1.30;1.20;;;;;;;21.97;49.64;100629.50;263630;1095;114460;-71
2021/08/11 15:36:59;;;;;;;2.43;1.25;;;;;;;21.87;49.85;100628.35;263619;1095;115086;-72
2021/08/11 15:42:01;;;;;;;1.13;1.03;;;;;;;21.99;49.37;100645.41;263565;1096;115064;-70
2021/08/11 15:47:03;;;;;;;1.45;1.30;;;;;;;22.10;49.81;100636.61;263594;1096;114603;-71
2021/08/11 15:52:07;;;;;;;1.90;1.13;;;;;;;22.05;49.62;100646.41;263642;1095;114477;-71
2021/08/11 15:57:09;;;;;;;2.05;0.95;;;;;;;21.83;49.97;100640.60;263587;1096;114394;-70
2021/08/11 16:02:11;;;;;;;2.65;1.20;;;;;;;21.63;51.54;100646.98;263630;1096;114501;-72
2021/08/11 16:07:13;;;;;;;1.75;1.65;;;;;;;21.42;52.79;100652.75;263619;1096;114348;-72
2021/08/11 16:12:16;;;;;;;1.15;1.08;;;;;;;21.27;52.39;100653.84;263602;1095;114477;-70
2021/08/11 16:17:17;;;;;;;2.23;1.33;;;;;;;;;;263541;1096;114903;-72
2021/08/11 16:22:20;;;;;;;3.18;1.88;;;;;;;21.13;51.96;100654.13;263747;1095;101077;-71
2021/08/11 16:27:22;;;;;;;2.35;2.10;;;;;;;21.14;52.32;100655.77;263627;1096;114747;-69
2021/08/11 16:32:25;;;;;;;1.60;1.50;;;;;;;21.20;52.29;100655.73;263613;1096;114788;-70
2021/08/11 16:37:27;;;;;;;1.95;1.58;;;;;;;21.17;53.05;100661.54;263586;1096;114696;-70
2021/08/11 16:42:29;;;;;;;1.90;1.80;;;;;;;21.17;52.74;100658.85;263658;1095;114709;-71
2021/08/11 16:47:31;;;;;;;3.25;2.95;;;;;;;21.11;53.67;100662.42;263253;1095;117537;-70
2021/08/11 16:52:34;;;;;;;1.95;1.73;;;;;;;21.14;54.35;100662.00;263655;1096;114784;-71
2021/08/11 16:57:36;;;;;;;2.98;1.75;;;;;;;21.01;54.68;100670.94;263574;1096;114660;-71
2021/08/11 17:02:38;;;;;;;3.18;1.80;;;;;;;20.98;55.28;100665.16;263615;1096;114492;-71
2021/08/11 17:07:41;;;;;;;2.33;1.80;;;;;;;20.93;56.00;100675.73;263631;1095;114958;-71
2021/08/11 17:12:46;;;;;;;5.13;4.03;;;;;;;20.84;56.57;100677.85;263658;1095;114819;-71
2021/08/11 17:17:49;;;;;;;3.03;1.85;;;;;;;20.74;55.75;100682.84;263594;1095;114641;-70
2021/08/11 17:22:51;;;;;;;2.18;1.98;;;;;;;20.71;57.07;100686.80;263629;1096;114603;-71
2021/08/11 17:27:53;;;;;;;1.78;1.60;;;;;;;20.62;56.66;100696.11;263551;1096;114596;-71
2021/08/11 17:32:56;;;;;;;2.30;2.00;;;;;;;20.58;57.47;100700.25;263674;1096;115238;-71
2021/08/11 17:37:58;;;;;;;2.15;1.40;;;;;;;20.49;57.69;100706.90;263637;1095;114923;-70
2021/08/11 17:43:00;;;;;;;2.40;1.68;;;;;;;20.39;58.58;100701.09;263640;1095;114851;-72
2021/08/11 17:48:02;;;;;;;8.68;6.35;;;;;;;20.29;59.21;100707.73;263252;1095;114659;-70
2021/08/11 17:53:04;;;;;;;2.63;2.43;;;;;;;20.19;59.81;100706.50;263584;1096;114745;-71
2021/08/11 17:58:09;;;;;;;2.55;1.95;;;;;;;20.04;61.14;100704.03;263562;1096;114682;-71
2021/08/11 18:03:11;;;;;;;;;;;;;;;19.86;62.52;100707.36;263651;1095;114455;-71
2021/08/11 18:08:13;;;;;;;3.80;1.95;;;;;;;19.64;63.69;100713.94;263695;1095;101175;-70
2021/08/11 18:13:16;;;;;;;2.88;2.63;;;;;;;19.61;63.83;100725.03;263677;1095;114473;-71
2021/08/11 18:18:18;;;;;;;3.98;3.00;;;;;;;19.58;63.60;100726.25;263573;1096;114526;-72
2021/08/11 18:23:21;;;;;;;3.78;3.20;;;;;;;19.58;63.21;100742.34;263635;1095;114767;-68
2021/08/11 18:28:23;;;;;;;4.58;3.08;;;;;;;19.78;63.16;100761.20;263369;1096;115703;-71
2021/08/11 18:33:26;;;;;;;3.43;2.30;;;;;;;19.91;62.20;100773.80;263554;1095;114950;-69
2021/08/11 18:38:31;;;;;;;3.65;2.95;;;;;;;19.92;61.45;100775.44;263480;1096;115576;-69
2021/08/11 18:43:34;;;;;;;4.63;2.50;;;;;;;19.85;61.75;100769.23;263507;1095;115532;-70
2021/08/11 18:48:36;;;;;;;2.75;2.55;;;;;;;19.59;62.99;100778.88;263548;1095;114905;-69
2021/08/11 18:53:39;;;;;;;3.20;2.80;;;;;;;19.39;64.38;100783.36;263511;1096;114747;-70
2021/08/11 18:58:42;;;;;;;2.65;2.18;;;;;;;19.29;63.75;100792.58;263456;1095;114454;-71
2021/08/11 19:03:44;;;;;;;3.08;2.35;;;;;;;19.12;64.10;100795.83;263524;1095;114981;-71
2021/08/11 19:08:46;;;;;;;2.70;2.40;;;;;;;19.13;63.56;100792.11;263508;1096;114728;-69
2021/08/11 19:13:48;;;;;;;2.50;2.30;;;;;;;19.07;63.77;100804.44;263553;1095;115185;-68
2021/08/11 19:18:50;;;;;;;3.25;2.20;;;;;;;18.98;64.33;100808.31;263516;1095;114538;-66
2021/08/11 19:23:53;;;;;;;2.88;2.68;;;;;;;18.95;63.65;100808.70;263585;1095;115045;-68
2021/08/11 19:28:56;;;;;;;3.15;2.40;;;;;;;18.77;64.81;100815.41;263473;1096;115541;-70
2021/08/11 19:33:58;;;;;;;3.48;2.88;;;;;;;18.81;63.08;100822.03;263541;1097;115439;-70
2021/08/11 19:39:00;;;;;;;2.70;2.50;;;;;;;18.54;64.83;100823.66;263523;1095;115840;-71
2021/08/11 19:44:03;;;;;;;3.35;2.35;;;;;;;18.32;66.20;100833.56;263515;1095;115789;-70
2021/08/11 19:49:05;;;;;;;3.13;2.83;;;;;;;18.20;67.82;100845.81;263202;1096;115241;-72
2021/08/11 19:54:07;;;;;;;5.50;2.70;;;;;;;18.02;68.45;100842.74;263546;1095;114848;-69
2021/08/11 19:59:09;;;;;;;4.05;2.78;;;;;;;17.91;68.30;100844.09;263526;1094;115581;-71
2021/08/11 20:04:11;;;;;;;5.70;3.20;;;;;;;17.70;70.51;100855.55;263522;1096;115619;-70
2021/08/11 20:09:14;;;;;;;2.83;2.50;;;;;;;17.55;71.09;100863.63;263504;1095;114583;-71
2021/08/11 20:14:18;;;;;;;5.60;2.40;;;;;;;17.50;71.16;100865.17;263513;1096;115155;-73
2021/08/11 20:19:20;;;;;;;5.95;3.08;;;;;;;17.58;69.80;100855.20;263495;1094;114574;-70
2021/08/11 20:24:23;;;;;;;4.80;3.20;;;;;;;17.52;70.46;100863.98;263571;1096;114720;-72
2021/08/11 20:29:25;;;;;;;2.75;2.55;;;;;;;17.26;71.26;100864.47;263579;1096;115057;-69
2021/08/11 20:34:29;;;;;;;3.45;3.08;;;;;;;17.46;69.59;100874.58;263541;1096;114587;-67
2021/08/11 20:39:31;;;;;;;6.45;2.75;;;;;;;17.46;69.82;100879.92;263625;1095;114843;-69
2021/08/11 20:44:33;;;;;;;2.78;2.43;;;;;;;17.13;70.72;100885.66;263276;1095;114684;-69
2021/08/11 20:49:36;;;;;;;4.73;2.65;;;;;;;16.86;72.14;100877.26;263542;1095;114824;-70
2021/08/11 20:54:38;;;;;;;4.55;2.50;;;;;;;16.89;71.80;100884.91;263595;1095;114513;-71
2021/08/11 20:59:40;;;;;;;3.75;2.70;;;;;;;16.95;71.87;100886.01;263587;1095;114851;-69
2021/08/11 21:04:42;;;;;;;5.43;4.85;;;;;;;16.93;72.33;100897.88;263634;1095;115072;-69
2021/08/11 21:09:44;;;;;;;12.68;8.65;;;;;;;16.88;72.20;100895.75;263608;1095;114493;-71
2021/08/11 21:14:46;;;;;;;8.55;5.63;;;;;;;17.12;70.55;100894.67;263603;1095;115035;-70
2021/08/11 21:19:48;;;;;;;5.70;4.40;;;;;;;16.77;71.68;100890.84;263635;1095;114828;-70
2021/08/11 21:24:51;;;;;;;5.70;5.15;;;;;;;16.50;74.30;100894.89;263589;1095;114559;-70
2021/08/11 21:29:53;;;;;;;10.15;8.53;;;;;;;16.37;74.86;100901.66;263646;1095;114686;-69
2021/08/11 21:34:55;;;;;;;13.68;11.00;;;;;;;16.35;74.54;100898.36;263614;1096;114866;-70
2021/08/11 21:39:57;;;;;;;17.98;14.43;;;;;;;16.41;74.43;100896.80;263604;1095;115110;-69
2021/08/11 21:45:01;;;;;;;16.88;12.20;;;;;;;16.37;75.14;100900.84;263596;1095;115233;-68
2021/08/11 21:50:03;;;;;;;20.33;15.20;;;;;;;16.40;74.41;100901.31;263647;1095;114821;-69
2021/08/11 21:55:06;;;;;;;19.75;17.10;;;;;;;16.25;75.62;100908.42;263610;1095;114927;-69
2021/08/11 22:00:13;;;;;;;20.05;16.18;;;;;;;16.23;75.90;100915.79;263637;1096;114891;-69
2021/08/11 22:05:17;;;;;;;21.65;16.13;;;;;;;16.36;73.98;100907.19;263589;1096;115205;-71
2021/08/11 22:10:20;;;;;;;24.88;19.90;;;;;;;16.15;75.96;100923.84;263648;1096;115117;-70
2021/08/11 22:15:22;;;;;;;24.35;17.68;;;;;;;16.25;75.39;100919.09;263593;1095;114939;-69
2021/08/11 22:20:24;;;;;;;18.00;14.85;;;;;;;15.97;76.63;100917.95;263640;1095;114981;-70
2021/08/11 22:25:26;;;;;;;16.30;11.60;;;;;;;15.81;77.82;100917.02;263610;1096;114922;-71
2021/08/11 22:30:29;;;;;;;15.08;11.45;;;;;;;15.82;76.74;100918.67;263601;1095;114913;-70
2021/08/11 22:35:31;;;;;;;13.93;8.90;;;;;;;16.15;74.67;100915.84;263630;1095;115266;-70
2021/08/11 22:40:34;;;;;;;11.30;8.95;;;;;;;16.17;74.58;100919.14;263641;1095;114607;-70
2021/08/11 22:45:36;;;;;;;10.05;7.98;;;;;;;16.23;73.92;100920.30;263633;1095;114946;-70
2021/08/11 22:50:38;;;;;;;9.58;7.73;;;;;;;15.95;75.34;100927.94;263610;1095;114623;-70